Time;durP1;ratioP1;P1;durP2;ratioP2;P2;SDS_P1;SDS_P2;PMS_P1;PMS_P2;Temp;Humidity;BMP_temperature;BMP_pressure;BME280_temperature;BME280_humidity;BME280_pressure;Samples;Min_cycle;Max_cycle;Signal;HPM_P1;HPM_P2
2022/09/19 05:00:36;;;;;;;2.13;1.10;;;10.50;97.20;;;;;;1733739;28;20180;-72
2022/09/19 05:01:27;;;;;;;4.40;1.10;;;10.50;97.20;;;;;;1733747;28;20227;-72
2022/09/19 05:02:19;;;;;;;4.87;1.80;;;10.50;97.20;;;;;;1729242;28;20192;-72
2022/09/19 05:03:11;;;;;;;3.28;1.20;;;10.50;97.20;;;;;;1726926;28;20219;-72
2022/09/19 05:04:08;;;;;;;4.05;1.52;;;10.50;97.20;;;;;;1726766;28;20268;-74
2022/09/19 05:04:59;;;;;;;3.05;0.80;;;10.50;97.20;;;;;;1727010;28;20659;-73
2022/09/19 05:05:51;;;;;;;3.15;0.88;;;10.50;97.20;;;;;;1726962;28;20204;-73
2022/09/19 05:06:42;;;;;;;5.60;1.10;;;10.50;97.20;;;;;;1727027;28;20291;-73
2022/09/19 05:07:34;;;;;;;3.20;0.90;;;10.50;97.20;;;;;;1727250;28;20295;-75
2022/09/19 05:08:27;;;;;;;8.68;1.45;;;10.50;97.20;;;;;;1733555;28;20290;-74
2022/09/19 05:09:22;;;;;;;3.45;1.25;;;10.50;97.20;;;;;;1733532;28;20209;-73
2022/09/19 05:10:12;;;;;;;7.47;1.38;;;10.50;97.20;;;;;;1733735;28;20210;-73
2022/09/19 05:11:06;;;;;;;3.57;0.90;;;10.50;97.20;;;;;;1733705;28;20203;-74
2022/09/19 05:11:57;;;;;;;5.60;1.00;;;10.50;97.20;;;;;;1733826;28;20573;-72
2022/09/19 05:12:49;;;;;;;1.83;0.80;;;10.50;97.20;;;;;;1734100;28;20195;-73
2022/09/19 05:13:40;;;;;;;3.38;1.25;;;10.50;97.20;;;;;;1733680;28;20200;-73
2022/09/19 05:14:32;;;;;;;2.70;1.20;;;10.50;97.20;;;;;;1733511;28;20266;-74
2022/09/19 05:15:25;;;;;;;4.20;1.13;;;10.50;97.20;;;;;;1733598;28;20211;-74
2022/09/19 05:16:18;;;;;;;6.18;1.50;;;10.50;97.20;;;;;;1733577;28;20200;-74
2022/09/19 05:17:09;;;;;;;7.00;1.23;;;10.50;97.20;;;;;;1732967;28;20685;-75
2022/09/19 05:18:00;;;;;;;2.80;0.93;;;10.50;97.20;;;;;;1731230;28;21524;-74
2022/09/19 05:18:52;;;;;;;2.35;1.15;;;10.50;97.20;;;;;;1726540;28;20200;-73
2022/09/19 05:19:44;;;;;;;3.10;1.00;;;10.40;97.20;;;;;;1730281;28;20561;-73
2022/09/19 05:20:35;;;;;;;2.60;1.00;;;10.50;97.20;;;;;;1730773;28;20267;-74
2022/09/19 05:21:27;;;;;;;4.60;1.25;;;10.50;97.20;;;;;;1726550;28;20189;-73
2022/09/19 05:22:18;;;;;;;4.35;1.42;;;10.50;97.20;;;;;;1729331;28;20197;-73
2022/09/19 05:23:09;;;;;;;3.23;1.10;;;10.50;97.20;;;;;;1729476;28;20191;-71
2022/09/19 05:24:01;;;;;;;4.10;1.10;;;10.50;97.20;;;;;;1729738;28;20201;-71
2022/09/19 05:24:53;;;;;;;2.42;0.80;;;10.50;97.20;;;;;;1730733;28;20220;-72
2022/09/19 05:25:44;;;;;;;6.20;1.40;;;10.50;97.20;;;;;;1729541;28;20306;-71
2022/09/19 05:26:38;;;;;;;1.83;1.00;;;10.50;97.20;;;;;;1729189;28;20227;-72
2022/09/19 05:27:31;;;;;;;3.33;1.00;;;10.50;97.20;;;;;;1728494;28;20200;-72
2022/09/19 05:28:27;;;;;;;3.58;1.00;;;10.50;97.20;;;;;;1728975;28;20687;-72
2022/09/19 05:29:18;;;;;;;3.17;1.30;;;10.50;97.20;;;;;;1730884;28;20203;-72
2022/09/19 05:30:10;;;;;;;2.63;1.38;;;10.50;97.20;;;;;;1732097;28;20197;-71
2022/09/19 05:31:06;;;;;;;4.80;1.00;;;10.60;97.20;;;;;;1731149;28;20298;-72
2022/09/19 05:32:02;;;;;;;4.90;1.10;;;10.60;97.20;;;;;;1730931;28;20730;-70
2022/09/19 05:32:54;;;;;;;3.72;1.10;;;10.60;97.20;;;;;;1729731;28;20204;-70
2022/09/19 05:33:46;;;;;;;2.00;0.80;;;10.60;97.20;;;;;;1729642;28;20243;-72
2022/09/19 05:34:37;;;;;;;2.42;1.27;;;10.60;97.20;;;;;;1731805;28;20253;-72
2022/09/19 05:35:28;;;;;;;4.05;1.00;;;10.60;97.20;;;;;;1730644;28;20196;-72
2022/09/19 05:36:20;;;;;;;2.35;1.08;;;10.70;97.20;;;;;;1730182;28;20191;-73
2022/09/19 05:37:11;;;;;;;2.97;1.25;;;10.70;97.20;;;;;;1730618;28;20191;-73
2022/09/19 05:38:03;;;;;;;4.53;1.43;;;10.60;97.20;;;;;;1734092;28;20188;-72
2022/09/19 05:38:53;;;;;;;3.95;1.42;;;10.60;97.20;;;;;;1730495;28;20196;-73
2022/09/19 05:39:45;;;;;;;1.70;1.20;;;10.60;97.20;;;;;;1730538;28;20193;-72
2022/09/19 05:40:36;;;;;;;3.65;1.20;;;10.60;97.20;;;;;;1730608;28;20220;-75
2022/09/19 05:41:28;;;;;;;4.53;1.33;;;10.60;97.20;;;;;;1727966;28;20690;-74
2022/09/19 05:42:19;;;;;;;2.85;0.95;;;10.60;97.20;;;;;;1728137;28;20205;-75
2022/09/19 05:43:10;;;;;;;4.70;1.20;;;10.60;97.20;;;;;;1728040;28;20715;-75
2022/09/19 05:44:01;;;;;;;3.25;1.35;;;10.60;97.20;;;;;;1727605;28;20455;-74
2022/09/19 05:44:54;;;;;;;6.70;1.55;;;10.60;97.20;;;;;;1727983;28;20224;-75
2022/09/19 05:45:46;;;;;;;2.42;0.85;;;10.60;97.20;;;;;;1730127;28;20859;-74
2022/09/19 05:46:39;;;;;;;6.43;1.40;;;10.60;97.20;;;;;;1729131;28;20192;-75
2022/09/19 05:47:30;;;;;;;2.80;1.10;;;10.60;97.20;;;;;;1729302;28;20936;-74
2022/09/19 05:48:23;;;;;;;1.50;0.90;;;10.60;97.20;;;;;;1734522;28;20564;-74
2022/09/19 05:49:13;;;;;;;2.88;1.13;;;10.60;97.20;;;;;;1734802;28;20214;-74
2022/09/19 05:50:07;;;;;;;3.37;1.20;;;10.70;97.20;;;;;;1734695;28;20203;-75
2022/09/19 05:50:58;;;;;;;2.70;1.05;;;10.70;97.20;;;;;;1731429;28;20246;-74
2022/09/19 05:51:54;;;;;;;4.63;1.60;;;10.70;97.20;;;;;;1733588;28;20214;-73
2022/09/19 05:53:56;;;;;;;2.45;0.98;;;10.70;97.20;;;;;;1728154;28;20605;-73
2022/09/19 05:54:46;;;;;;;3.90;1.15;;;10.70;97.20;;;;;;1727736;28;20188;-72
2022/09/19 05:55:37;;;;;;;4.93;1.30;;;10.80;97.20;;;;;;1727964;28;20227;-72
2022/09/19 05:56:29;;;;;;;5.07;1.42;;;10.80;97.20;;;;;;1727981;28;20729;-71
2022/09/19 05:57:20;;;;;;;3.50;1.30;;;10.80;97.20;;;;;;1733867;28;20207;-72
2022/09/19 05:58:12;;;;;;;3.57;1.43;;;10.80;97.20;;;;;;1734460;28;20282;-72
2022/09/19 05:59:03;;;;;;;3.45;1.05;;;10.80;97.20;;;;;;1734606;28;20302;-72
2022/09/19 05:59:56;;;;;;;3.60;1.10;;;10.80;97.20;;;;;;1734831;28;20203;-73
2022/09/19 06:00:47;;;;;;;3.60;1.08;;;10.80;97.20;;;;;;1734590;28;20628;-71
2022/09/19 06:01:40;;;;;;;6.90;1.27;;;10.80;97.20;;;;;;1734684;28;20223;-72
2022/09/19 06:02:32;;;;;;;5.88;1.35;;;10.80;97.20;;;;;;1734588;28;20247;-72
2022/09/19 06:03:24;;;;;;;3.42;1.00;;;10.80;97.20;;;;;;1734701;28;20210;-71
2022/09/19 06:04:15;;;;;;;2.83;1.35;;;10.80;97.20;;;;;;1733093;28;20231;-71
2022/09/19 06:05:07;;;;;;;3.43;0.90;;;10.80;97.20;;;;;;1729393;28;20228;-70
2022/09/19 06:05:58;;;;;;;4.78;1.20;;;10.80;97.20;;;;;;1732235;28;20216;-71
2022/09/19 06:06:49;;;;;;;5.50;1.23;;;10.80;97.20;;;;;;1727931;28;20192;-71
2022/09/19 06:07:41;;;;;;;2.53;0.70;;;10.80;97.20;;;;;;1729039;28;20208;-72
2022/09/19 06:08:32;;;;;;;4.93;1.25;;;10.80;97.20;;;;;;1734673;28;20227;-72
2022/09/19 06:09:24;;;;;;;3.58;1.23;;;10.80;97.20;;;;;;1734622;28;20238;-71
2022/09/19 06:10:16;;;;;;;4.70;1.20;;;10.80;97.20;;;;;;1734802;28;20196;-71
2022/09/19 06:11:08;;;;;;;4.70;1.38;;;10.80;97.20;;;;;;1734368;28;20299;-74
2022/09/19 06:12:00;;;;;;;2.92;1.58;;;10.90;97.20;;;;;;1734575;28;20200;-71
2022/09/19 06:12:52;;;;;;;3.42;1.33;;;10.90;97.20;;;;;;1734519;28;20192;-72
2022/09/19 06:14:49;;;;;;;3.63;1.45;;;10.90;97.20;;;;;;1718816;28;20689;-72
2022/09/19 06:15:40;;;;;;;4.18;1.83;;;10.90;97.20;;;;;;1728338;28;20238;-72
2022/09/19 06:16:32;;;;;;;5.43;1.40;;;10.90;97.20;;;;;;1728298;28;20196;-72
2022/09/19 06:17:24;;;;;;;8.40;2.28;;;10.90;97.20;;;;;;1727844;28;20458;-72
2022/09/19 06:18:17;;;;;;;4.47;1.30;;;10.90;97.20;;;;;;1728241;28;20200;-72
2022/09/19 06:19:08;;;;;;;4.55;1.48;;;10.90;97.20;;;;;;1728189;28;20212;-72
2022/09/19 06:20:00;;;;;;;3.50;1.08;;;10.90;97.20;;;;;;1728024;28;20212;-72
2022/09/19 06:20:50;;;;;;;6.97;1.92;;;10.90;97.20;;;;;;1727893;28;20711;-72
2022/09/19 06:21:42;;;;;;;5.10;1.57;;;10.90;97.20;;;;;;1728326;28;20266;-72
2022/09/19 06:22:33;;;;;;;3.95;1.00;;;10.90;97.20;;;;;;1728259;28;20223;-73
2022/09/19 06:23:25;;;;;;;4.13;1.27;;;10.90;97.20;;;;;;1728829;28;20196;-73
2022/09/19 06:24:15;;;;;;;2.75;1.02;;;10.90;97.20;;;;;;1728538;28;20235;-72
2022/09/19 06:25:08;;;;;;;5.30;1.40;;;10.90;97.20;;;;;;1734127;28;20224;-72
2022/09/19 06:25:59;;;;;;;4.60;1.70;;;10.90;97.20;;;;;;1734324;28;20196;-73
2022/09/19 06:26:53;;;;;;;5.27;1.33;;;10.90;97.20;;;;;;1735064;28;20279;-72
2022/09/19 06:27:52;;;;;;;2.72;1.02;;;10.90;97.20;;;;;;1734817;28;20208;-73
2022/09/19 06:28:46;;;;;;;2.08;1.00;;;10.90;97.20;;;;;;1735022;28;20196;-73
2022/09/19 06:29:37;;;;;;;3.95;1.33;;;10.90;97.20;;;;;;1735059;28;20211;-72
2022/09/19 06:30:29;;;;;;;6.70;1.57;;;11.00;97.20;;;;;;1731594;28;20192;-73
2022/09/19 06:31:20;;;;;;;4.82;1.40;;;11.00;97.20;;;;;;1728212;28;20208;-73
2022/09/19 06:32:12;;;;;;;7.23;1.60;;;11.00;97.20;;;;;;1728190;28;20196;-72
2022/09/19 06:33:06;;;;;;;5.72;1.30;;;11.00;97.20;;;;;;1728191;28;20227;-72
2022/09/19 06:33:58;;;;;;;2.78;1.40;;;11.00;97.20;;;;;;1728115;28;20204;-73
2022/09/19 06:34:49;;;;;;;4.80;1.23;;;11.00;97.20;;;;;;1728163;28;20243;-72
2022/09/19 06:35:40;;;;;;;4.60;1.40;;;11.00;97.20;;;;;;1728221;28;20208;-72
2022/09/19 06:36:31;;;;;;;3.50;1.45;;;11.00;97.20;;;;;;1728193;28;20200;-72
2022/09/19 06:37:23;;;;;;;5.53;1.47;;;11.00;97.20;;;;;;1727787;28;20200;-73
2022/09/19 06:38:13;;;;;;;2.05;1.08;;;11.00;97.20;;;;;;1728225;28;20596;-73
2022/09/19 06:39:05;;;;;;;3.83;1.67;;;11.00;97.20;;;;;;1728078;28;20200;-72
2022/09/19 06:39:56;;;;;;;6.57;1.60;;;11.10;97.20;;;;;;1728051;28;20211;-72
2022/09/19 06:40:48;;;;;;;4.40;1.30;;;11.10;97.20;;;;;;1728497;28;20212;-73
2022/09/19 06:41:39;;;;;;;2.90;1.25;;;11.10;97.20;;;;;;1734967;28;20208;-72
2022/09/19 06:42:30;;;;;;;4.00;1.07;;;11.10;97.20;;;;;;1731862;28;20190;-73
2022/09/19 06:43:21;;;;;;;2.83;1.25;;;11.10;97.20;;;;;;1728168;28;20690;-72
2022/09/19 06:44:13;;;;;;;6.95;1.70;;;11.10;97.20;;;;;;1728198;28;20205;-73
2022/09/19 06:45:06;;;;;;;4.15;1.30;;;11.10;97.20;;;;;;1728027;28;20220;-72
2022/09/19 06:45:58;;;;;;;5.78;1.38;;;11.10;97.20;;;;;;1728303;28;20594;-73
2022/09/19 06:46:49;;;;;;;1.92;1.10;;;11.10;97.20;;;;;;1728060;28;20201;-73
2022/09/19 06:47:40;;;;;;;4.10;1.37;;;11.20;97.20;;;;;;1727976;28;20207;-73
2022/09/19 06:48:35;;;;;;;5.47;1.40;;;11.20;97.20;;;;;;1728020;28;20211;-72
2022/09/19 06:49:27;;;;;;;4.53;1.10;;;11.20;97.20;;;;;;1728043;28;20204;-72
2022/09/19 06:50:17;;;;;;;2.90;1.27;;;11.20;97.20;;;;;;1729190;28;20205;-73
2022/09/19 06:51:09;;;;;;;8.97;1.93;;;11.10;97.20;;;;;;1734898;28;20262;-73
2022/09/19 06:52:00;;;;;;;5.40;1.30;;;11.10;97.20;;;;;;1734933;28;20230;-72
2022/09/19 06:52:52;;;;;;;4.82;1.50;;;11.10;97.20;;;;;;1734870;28;20279;-72
2022/09/19 06:53:47;;;;;;;6.07;1.42;;;11.10;97.20;;;;;;1734904;28;20225;-72
2022/09/19 06:54:38;;;;;;;4.28;1.50;;;11.10;97.20;;;;;;1735050;28;20200;-72
2022/09/19 06:55:30;;;;;;;6.30;1.67;;;11.10;97.20;;;;;;1734854;28;20202;-72
2022/09/19 06:56:23;;;;;;;6.22;1.80;;;11.10;97.20;;;;;;1734950;28;20663;-72
2022/09/19 06:57:13;;;;;;;6.50;1.50;;;11.10;97.20;;;;;;1734609;28;20243;-72
2022/09/19 06:58:06;;;;;;;8.63;1.80;;;11.10;97.20;;;;;;1734877;28;20204;-73
2022/09/19 06:58:57;;;;;;;5.35;2.13;;;11.10;97.20;;;;;;1734774;28;20204;-72
2022/09/19 06:59:48;;;;;;;4.10;1.60;;;11.10;97.20;;;;;;1734876;28;20206;-73
2022/09/19 07:00:40;;;;;;;6.85;1.77;;;11.10;97.20;;;;;;1730267;28;20224;-74
2022/09/19 07:01:33;;;;;;;5.43;1.55;;;11.10;97.20;;;;;;1727979;28;20205;-74
2022/09/19 07:02:23;;;;;;;5.93;2.13;;;11.10;97.20;;;;;;1728089;28;20204;-74
2022/09/19 07:03:17;;;;;;;6.37;1.97;;;11.10;97.20;;;;;;1728055;28;20204;-75
2022/09/19 07:04:09;;;;;;;4.90;1.40;;;11.10;97.20;;;;;;1727996;28;20236;-74
2022/09/19 07:05:01;;;;;;;5.60;1.55;;;11.20;97.20;;;;;;1727942;28;20773;-72
2022/09/19 07:05:52;;;;;;;3.55;1.50;;;11.20;97.20;;;;;;1728009;28;20208;-72
2022/09/19 07:06:43;;;;;;;5.43;1.50;;;11.20;97.20;;;;;;1727881;28;20667;-72
2022/09/19 07:07:34;;;;;;;6.15;1.95;;;11.20;97.20;;;;;;1727742;28;20197;-72
2022/09/19 07:08:26;;;;;;;8.40;1.83;;;11.20;97.20;;;;;;1727901;28;20204;-72
2022/09/19 07:09:16;;;;;;;4.60;1.67;;;11.20;97.20;;;;;;1728038;28;20691;-72
2022/09/19 07:10:09;;;;;;;6.20;1.40;;;11.20;97.20;;;;;;1727863;28;20566;-72
2022/09/19 07:11:00;;;;;;;6.82;2.15;;;11.20;97.20;;;;;;1732115;28;20228;-73
2022/09/19 07:11:53;;;;;;;4.87;1.50;;;11.20;97.20;;;;;;1728019;28;20207;-73
2022/09/19 07:12:51;;;;;;;7.47;2.40;;;11.20;97.20;;;;;;1727978;28;20443;-72
2022/09/19 07:13:43;;;;;;;4.13;1.45;;;11.20;97.20;;;;;;1728061;28;20200;-72
2022/09/19 07:14:34;;;;;;;5.72;1.50;;;11.30;97.20;;;;;;1728050;28;20196;-72
2022/09/19 07:15:25;;;;;;;6.63;2.80;;;11.30;97.20;;;;;;1727887;28;20267;-73
2022/09/19 07:16:16;;;;;;;3.42;1.40;;;11.30;97.20;;;;;;1727917;28;20208;-72
2022/09/19 07:17:08;;;;;;;3.77;1.53;;;11.30;97.20;;;;;;1727891;28;20204;-72
2022/09/19 07:17:59;;;;;;;4.00;1.55;;;11.30;97.20;;;;;;1727938;28;20258;-72
2022/09/19 07:18:50;;;;;;;8.30;1.90;;;11.30;97.20;;;;;;1727818;28;20200;-72
2022/09/19 07:19:43;;;;;;;4.18;1.48;;;11.30;97.20;;;;;;1727945;28;20207;-72
2022/09/19 07:20:36;;;;;;;5.88;1.63;;;11.30;97.20;;;;;;1730581;28;20694;-72
2022/09/19 07:21:27;;;;;;;6.60;1.10;;;11.30;97.20;;;;;;1734667;28;20663;-72
2022/09/19 07:22:19;;;;;;;7.77;1.80;;;11.30;97.20;;;;;;1734778;28;20222;-72
2022/09/19 07:23:13;;;;;;;3.10;1.40;;;11.40;97.20;;;;;;1734655;28;20203;-72
2022/09/19 07:24:06;;;;;;;4.93;1.17;;;11.40;97.20;;;;;;1734656;28;20208;-72
2022/09/19 07:24:56;;;;;;;6.60;1.92;;;11.40;97.20;;;;;;1734729;28;20303;-72
2022/09/19 07:25:48;;;;;;;5.13;1.60;;;11.40;97.20;;;;;;1734559;28;20286;-72
2022/09/19 07:26:39;;;;;;;3.85;1.50;;;11.40;97.20;;;;;;1734696;28;20249;-72
2022/09/19 07:27:31;;;;;;;7.30;1.53;;;11.40;97.20;;;;;;1734409;28;20200;-72
2022/09/19 07:28:22;;;;;;;6.55;1.35;;;11.40;97.20;;;;;;1734605;28;20689;-73
2022/09/19 07:29:14;;;;;;;5.20;1.48;;;11.40;97.20;;;;;;1734626;28;20200;-73
2022/09/19 07:30:06;;;;;;;5.60;1.60;;;11.40;97.20;;;;;;1734592;28;20203;-72
2022/09/19 07:30:58;;;;;;;6.97;1.63;;;11.50;97.20;;;;;;1728483;28;20255;-74
2022/09/19 07:31:49;;;;;;;5.40;1.92;;;11.50;97.20;;;;;;1727769;28;20201;-74
2022/09/19 07:32:41;;;;;;;6.07;2.17;;;11.50;97.20;;;;;;1727759;28;20211;-74
2022/09/19 07:33:32;;;;;;;4.90;1.63;;;11.50;97.20;;;;;;1727825;28;20197;-74
2022/09/19 07:34:23;;;;;;;11.32;2.17;;;11.50;97.20;;;;;;1727892;28;20197;-74
2022/09/19 07:35:16;;;;;;;4.53;2.10;;;11.50;97.20;;;;;;1727852;28;20201;-74
2022/09/19 07:36:10;;;;;;;8.98;2.80;;;11.60;97.20;;;;;;1727872;28;20205;-74
2022/09/19 07:37:00;;;;;;;5.32;2.25;;;11.60;97.20;;;;;;1727759;28;20683;-74
2022/09/19 07:37:52;;;;;;;6.80;2.27;;;11.60;97.20;;;;;;1727644;28;20635;-72
2022/09/19 07:38:43;;;;;;;4.68;1.88;;;11.60;97.20;;;;;;1727735;28;20204;-72
2022/09/19 07:39:35;;;;;;;6.37;2.07;;;11.60;97.20;;;;;;1727893;28;20200;-72
2022/09/19 07:40:25;;;;;;;8.07;2.20;;;11.60;97.20;;;;;;1728613;28;20208;-72
2022/09/19 07:41:18;;;;;;;4.00;1.97;;;11.70;97.20;;;;;;1734676;28;20245;-72
2022/09/19 07:42:09;;;;;;;6.43;1.95;;;11.70;97.20;;;;;;1734464;28;20211;-72
2022/09/19 07:43:01;;;;;;;7.50;1.53;;;11.70;97.20;;;;;;1734562;28;20206;-72
2022/09/19 07:43:52;;;;;;;7.25;2.40;;;11.70;97.20;;;;;;1734568;28;20241;-72
2022/09/19 07:44:44;;;;;;;7.07;2.07;;;11.70;97.20;;;;;;1734607;28;20203;-72
2022/09/19 07:45:36;;;;;;;7.63;1.83;;;11.80;97.20;;;;;;1734453;28;20646;-72
2022/09/19 07:46:28;;;;;;;3.80;1.80;;;11.80;97.20;;;;;;1734544;28;20317;-72
2022/09/19 07:47:27;;;;;;;4.43;1.60;;;11.80;97.20;;;;;;1734217;28;20211;-72
2022/09/19 07:48:20;;;;;;;5.38;1.95;;;11.80;97.20;;;;;;1734499;28;20207;-72
2022/09/19 07:49:10;;;;;;;5.07;2.20;;;11.80;97.20;;;;;;1734588;28;20654;-72
2022/09/19 07:50:02;;;;;;;5.00;1.90;;;11.80;97.20;;;;;;1734536;28;20633;-72
2022/09/19 07:50:57;;;;;;;13.48;3.53;;;11.70;97.20;;;;;;1729469;28;20212;-72
2022/09/19 07:51:51;;;;;;;8.85;2.45;;;11.80;97.20;;;;;;1727510;28;20231;-72
2022/09/19 07:52:43;;;;;;;6.43;1.48;;;11.80;97.20;;;;;;1727723;28;20204;-72
2022/09/19 07:53:34;;;;;;;6.13;2.20;;;11.80;97.20;;;;;;1727690;28;20197;-72
2022/09/19 07:54:25;;;;;;;9.18;3.00;;;11.80;97.20;;;;;;1727702;28;20204;-72
2022/09/19 07:55:17;;;;;;;5.00;1.97;;;11.90;97.20;;;;;;1727695;28;20211;-72
2022/09/19 07:56:10;;;;;;;7.05;2.45;;;11.90;97.20;;;;;;1727720;28;20200;-72
2022/09/19 07:57:01;;;;;;;4.40;1.85;;;11.90;97.20;;;;;;1727633;28;20720;-72
2022/09/19 07:57:55;;;;;;;7.43;2.05;;;11.90;97.20;;;;;;1727524;28;20629;-72
2022/09/19 07:58:46;;;;;;;4.95;1.70;;;11.90;97.20;;;;;;1728068;28;20219;-72
2022/09/19 07:59:38;;;;;;;5.80;1.88;;;11.90;97.20;;;;;;1734417;28;20207;-72
2022/09/19 08:00:31;;;;;;;6.05;2.17;;;11.90;97.20;;;;;;1734208;28;20192;-73
2022/09/19 08:01:22;;;;;;;7.45;2.67;;;11.90;97.20;;;;;;1734522;28;20212;-72
2022/09/19 08:02:14;;;;;;;5.53;1.73;;;11.90;97.20;;;;;;1734476;28;20200;-73
2022/09/19 08:03:08;;;;;;;6.75;1.60;;;11.90;97.20;;;;;;1734389;28;20204;-72
2022/09/19 08:04:00;;;;;;;5.63;1.45;;;12.00;97.20;;;;;;1731699;28;20681;-73
2022/09/19 08:04:51;;;;;;;8.68;2.00;;;12.00;97.20;;;;;;1730285;28;20281;-74
2022/09/19 08:05:44;;;;;;;7.18;1.90;;;12.00;97.20;;;;;;1730387;28;20220;-72
2022/09/19 08:06:37;;;;;;;4.78;1.60;;;12.00;97.20;;;;;;1731681;28;20254;-72
2022/09/19 08:07:29;;;;;;;8.75;1.95;;;12.00;97.20;;;;;;1730203;28;20267;-74
2022/09/19 08:08:22;;;;;;;7.78;2.03;;;12.00;97.20;;;;;;1730445;28;20541;-74
2022/09/19 08:09:14;;;;;;;8.98;1.90;;;12.10;97.20;;;;;;1729272;28;20561;-74
2022/09/19 08:10:06;;;;;;;5.90;1.63;;;12.10;97.20;;;;;;1730701;28;20568;-73
2022/09/19 08:11:01;;;;;;;6.90;2.10;;;12.10;97.20;;;;;;1730142;28;20216;-74
2022/09/19 08:11:52;;;;;;;11.60;2.00;;;12.10;97.20;;;;;;1724461;28;20197;-74
2022/09/19 08:12:44;;;;;;;4.63;1.80;;;12.00;97.20;;;;;;1723585;28;20192;-73
2022/09/19 08:13:35;;;;;;;5.15;2.95;;;12.10;97.20;;;;;;1727790;28;20200;-74
2022/09/19 08:14:27;;;;;;;7.90;2.03;;;12.10;97.20;;;;;;1730850;28;20254;-74
2022/09/19 08:15:19;;;;;;;5.15;1.85;;;12.10;97.20;;;;;;1731597;28;20197;-72
2022/09/19 08:16:11;;;;;;;8.82;2.03;;;12.10;97.20;;;;;;1730156;28;20710;-74
2022/09/19 08:17:02;;;;;;;8.13;2.40;;;12.20;97.20;;;;;;1730303;28;20219;-74
2022/09/19 08:17:59;;;;;;;6.60;2.20;;;12.20;97.20;;;;;;1731369;28;20195;-74
2022/09/19 08:18:50;;;;;;;6.78;1.75;;;12.20;97.20;;;;;;1730000;28;20200;-74
2022/09/19 08:19:42;;;;;;;5.97;2.25;;;12.20;97.20;;;;;;1730235;28;20773;-75
2022/09/19 08:20:36;;;;;;;9.57;2.00;;;12.20;97.20;;;;;;1730039;28;20596;-74
2022/09/19 08:21:28;;;;;;;5.72;1.77;;;12.30;97.20;;;;;;1730966;28;20219;-74
2022/09/19 08:22:20;;;;;;;7.10;1.90;;;12.30;97.20;;;;;;1731472;28;20220;-75
2022/09/19 08:23:14;;;;;;;8.55;2.67;;;12.30;97.20;;;;;;1727549;28;20649;-71
2022/09/19 08:24:05;;;;;;;7.60;2.00;;;12.30;97.20;;;;;;1727487;28;20204;-73
2022/09/19 08:24:57;;;;;;;6.47;1.83;;;12.30;97.20;;;;;;1730221;28;20196;-73
2022/09/19 08:25:51;;;;;;;7.28;2.20;;;12.30;97.20;;;;;;1731132;28;20240;-72
2022/09/19 08:26:44;;;;;;;11.48;2.35;;;12.30;97.20;;;;;;1731216;28;20192;-72
2022/09/19 08:27:37;;;;;;;8.40;2.78;;;12.40;97.20;;;;;;1729967;28;20200;-73
2022/09/19 08:28:30;;;;;;;7.13;2.00;;;12.40;97.20;;;;;;1730978;28;20224;-73
2022/09/19 08:29:20;;;;;;;6.00;1.92;;;12.40;97.20;;;;;;1730318;28;20235;-72
2022/09/19 08:30:13;;;;;;;5.53;1.53;;;12.40;97.20;;;;;;1731381;28;20193;-73
2022/09/19 08:31:04;;;;;;;8.88;1.83;;;12.40;97.20;;;;;;1731072;28;20196;-73
2022/09/19 08:31:56;;;;;;;11.50;2.03;;;12.40;97.20;;;;;;1730210;28;20200;-73
2022/09/19 08:32:49;;;;;;;5.70;1.90;;;12.40;97.20;;;;;;1730867;28;20204;-73
2022/09/19 08:33:40;;;;;;;6.85;1.75;;;12.40;97.20;;;;;;1731417;28;20204;-73
2022/09/19 08:34:32;;;;;;;5.33;1.87;;;12.50;97.20;;;;;;1730075;28;20199;-73
2022/09/19 08:35:24;;;;;;;9.15;1.85;;;12.50;97.20;;;;;;1730288;28;20197;-72
2022/09/19 08:36:16;;;;;;;8.18;2.03;;;12.50;97.20;;;;;;1731506;28;20251;-72
2022/09/19 08:37:08;;;;;;;9.57;2.00;;;12.60;97.20;;;;;;1730388;28;20199;-72
2022/09/19 08:38:01;;;;;;;9.10;2.25;;;12.60;97.20;;;;;;1729986;28;20202;-72
2022/09/19 08:38:53;;;;;;;3.70;1.98;;;12.60;97.20;;;;;;1730255;28;20196;-73
2022/09/19 08:40:15;;;;;;;5.47;2.05;;;12.60;97.20;;;;;;1730987;28;20199;-73
2022/09/19 08:41:14;;;;;;;7.93;2.60;;;12.60;97.20;;;;;;1729783;28;20224;-73
2022/09/19 08:42:18;;;;;;;9.68;2.20;;;12.70;97.20;;;;;;1730680;28;20189;-73
2022/09/19 08:43:11;;;;;;;5.50;2.00;;;12.70;97.20;;;;;;1730461;28;20240;-73
2022/09/19 08:44:12;;;;;;;6.38;2.28;;;12.70;97.20;;;;;;1730256;28;20201;-73
2022/09/19 08:45:07;;;;;;;4.10;1.98;;;12.70;97.20;;;;;;1731196;28;20188;-73
2022/09/19 08:46:13;;;;;;;4.55;2.13;;;12.70;97.20;;;;;;1730133;28;20235;-73
2022/09/19 08:47:09;;;;;;;7.95;1.98;;;12.70;97.20;;;;;;1730431;28;20600;-73
2022/09/19 08:48:05;;;;;;;6.55;2.00;;;12.70;97.20;;;;;;1731493;28;20219;-74
2022/09/19 08:48:58;;;;;;;6.00;2.50;;;12.70;97.20;;;;;;1727778;28;20197;-74
2022/09/19 08:49:53;;;;;;;6.80;2.40;;;12.70;97.20;;;;;;1730332;28;20614;-74
2022/09/19 08:50:53;;;;;;;7.05;2.25;;;12.70;97.20;;;;;;1730434;28;20319;-73
2022/09/19 08:51:53;;;;;;;8.73;2.13;;;12.70;97.20;;;;;;1731033;28;20490;-73
2022/09/19 08:52:46;;;;;;;5.72;1.83;;;12.80;97.20;;;;;;1730431;28;20204;-73
2022/09/19 08:53:45;;;;;;;6.47;1.67;;;12.80;97.20;;;;;;1731385;28;20215;-74
2022/09/19 08:54:40;;;;;;;5.15;1.90;;;12.80;97.20;;;;;;1727361;28;20201;-73
2022/09/19 08:55:36;;;;;;;8.73;2.50;;;12.70;97.20;;;;;;1727164;28;20280;-74
2022/09/19 08:56:29;;;;;;;8.15;2.00;;;12.70;97.20;;;;;;1730894;28;20196;-73
2022/09/19 08:57:26;;;;;;;6.72;2.08;;;12.70;97.20;;;;;;1731008;28;20215;-73
2022/09/19 08:58:19;;;;;;;5.00;2.00;;;12.70;97.20;;;;;;1727190;28;20287;-74
2022/09/19 08:59:15;;;;;;;8.90;1.98;;;12.80;97.20;;;;;;1729270;28;20200;-74
2022/09/19 09:00:14;;;;;;;5.85;1.92;;;12.80;97.20;;;;;;1730473;28;20263;-74
2022/09/19 09:01:09;;;;;;;6.93;2.05;;;12.80;97.20;;;;;;1731537;28;20662;-74
2022/09/19 09:02:10;;;;;;;11.90;3.28;;;12.80;97.20;;;;;;1731482;28;20204;-73
2022/09/19 09:03:03;;;;;;;7.70;1.98;;;12.90;97.20;;;;;;1727097;28;20632;-74
2022/09/19 09:04:07;;;;;;;8.40;1.92;;;12.90;97.20;;;;;;1723808;28;20777;-74
2022/09/19 09:04:59;;;;;;;8.48;2.08;;;12.90;97.20;;;;;;1732828;28;20204;-74
2022/09/19 09:05:59;;;;;;;5.95;3.17;;;12.90;97.20;;;;;;1734606;28;20779;-74
2022/09/19 09:07:02;;;;;;;10.55;2.65;;;12.90;97.20;;;;;;1734659;28;20204;-74
2022/09/19 09:07:58;;;;;;;6.70;1.70;;;13.00;97.20;;;;;;1734959;28;20678;-72
2022/09/19 09:09:01;;;;;;;7.53;2.13;;;13.00;97.20;;;;;;1735090;28;20200;-72
2022/09/19 09:10:05;;;;;;;7.68;2.55;;;13.00;97.20;;;;;;1727917;28;20204;-72
2022/09/19 09:11:03;;;;;;;10.60;1.90;;;13.00;97.20;;;;;;1728290;28;20229;-72
2022/09/19 09:12:02;;;;;;;5.28;2.28;;;13.00;97.20;;;;;;1728381;28;20200;-72
2022/09/19 09:13:04;;;;;;;13.30;2.70;;;13.00;97.20;;;;;;1728600;28;20208;-72
2022/09/19 09:14:03;;;;;;;6.25;2.33;;;13.00;97.20;;;;;;1728416;28;20224;-72
2022/09/19 09:15:03;;;;;;;7.93;1.77;;;13.00;97.20;;;;;;1728004;28;20207;-72
2022/09/19 09:16:04;;;;;;;5.97;2.00;;;12.90;97.20;;;;;;1728495;28;20215;-72
2022/09/19 09:17:10;;;;;;;5.85;2.28;;;12.90;97.20;;;;;;1728401;28;20216;-72
2022/09/19 09:18:21;;;;;;;5.95;1.83;;;13.00;97.20;;;;;;1728088;28;20300;-72
2022/09/19 09:19:28;;;;;;;8.63;2.10;;;13.00;97.20;;;;;;1730319;28;20618;-72
2022/09/19 09:20:28;;;;;;;4.10;1.60;;;13.00;97.20;;;;;;1734890;28;20294;-72
2022/09/19 09:21:30;;;;;;;6.30;1.85;;;13.10;97.20;;;;;;1735426;28;20212;-72
2022/09/19 09:22:26;;;;;;;5.63;1.70;;;13.10;97.20;;;;;;1735331;28;20208;-72
2022/09/19 09:23:23;;;;;;;8.43;2.30;;;13.10;97.20;;;;;;1735114;28;20206;-72
2022/09/19 09:24:22;;;;;;;7.63;2.05;;;13.20;97.20;;;;;;1735124;28;20322;-72
2022/09/19 09:25:16;;;;;;;8.15;2.17;;;13.20;97.20;;;;;;1735394;28;20204;-73
2022/09/19 09:26:14;;;;;;;8.52;2.80;;;13.30;97.20;;;;;;1735371;28;20670;-72
2022/09/19 09:27:12;;;;;;;8.55;2.55;;;13.30;97.20;;;;;;1735351;28;20208;-72
2022/09/19 09:28:08;;;;;;;5.47;1.35;;;13.30;97.20;;;;;;1727951;28;20212;-72
2022/09/19 09:29:08;;;;;;;6.30;2.22;;;13.30;97.20;;;;;;1727055;28;20209;-72
2022/09/19 09:30:07;;;;;;;5.55;2.10;;;13.30;97.20;;;;;;1728524;28;20228;-72
2022/09/19 09:31:07;;;;;;;5.30;1.92;;;13.30;97.20;;;;;;1728375;28;20231;-72
2022/09/19 09:32:05;;;;;;;8.25;2.13;;;13.40;97.20;;;;;;1733117;28;20556;-72
2022/09/19 09:33:05;;;;;;;10.63;2.08;;;13.40;97.20;;;;;;1728669;28;20216;-72
2022/09/19 09:34:02;;;;;;;5.60;2.25;;;13.40;97.20;;;;;;1728567;28;20664;-72
2022/09/19 09:34:58;;;;;;;3.63;2.05;;;13.40;97.20;;;;;;1728341;28;20655;-75
2022/09/19 09:35:57;;;;;;;6.05;2.15;;;13.40;97.20;;;;;;1728091;28;20835;-72
2022/09/19 09:36:55;;;;;;;6.10;2.08;;;13.40;97.20;;;;;;1728048;28;20730;-72
2022/09/19 09:37:57;;;;;;;8.48;1.98;;;13.40;97.20;;;;;;1728208;28;20226;-72
2022/09/19 09:38:52;;;;;;;5.63;2.10;;;13.40;97.20;;;;;;1728267;28;20204;-72
2022/09/19 09:39:59;;;;;;;6.80;2.30;;;13.40;97.20;;;;;;1730762;28;20607;-72